createdAt,value
2023-05-10T00:00:18.620Z,136.43
2023-05-10T00:01:18.463Z,137.01
2023-05-10T00:02:18.507Z,138.99
2023-05-10T00:03:18.598Z,137.87
2023-05-10T00:04:18.634Z,136.06
2023-05-10T00:05:18.550Z,136.48
2023-05-10T00:06:18.553Z,135.55
2023-05-10T00:07:18.578Z,135.82
2023-05-10T00:08:18.613Z,136.13
2023-05-10T00:09:18.615Z,135.31
2023-05-10T00:10:18.793Z,135.98
2023-05-10T00:11:19.608Z,135.94
2023-05-10T00:12:18.724Z,136.01
2023-05-10T00:13:18.801Z,138.05
2023-05-10T00:14:18.925Z,136.55
2023-05-10T00:15:18.779Z,136.04
2023-05-10T00:16:18.808Z,135.99
2023-05-10T00:17:18.813Z,136.50
2023-05-10T00:18:18.836Z,136.47
2023-05-10T00:19:18.861Z,136.06
2023-05-10T00:20:19.252Z,137.30
2023-05-10T00:21:18.902Z,134.83
2023-05-10T00:22:18.917Z,136.32
2023-05-10T00:23:19.031Z,137.74
2023-05-10T00:24:18.954Z,135.12
2023-05-10T00:25:18.967Z,134.55
2023-05-10T00:26:19.002Z,135.37
2023-05-10T00:27:19.036Z,135.57
2023-05-10T00:28:19.021Z,135.67
2023-05-10T00:29:19.030Z,136.07
2023-05-10T00:30:19.293Z,135.71
2023-05-10T00:31:19.071Z,136.53
2023-05-10T00:32:19.240Z,135.50
2023-05-10T00:33:19.100Z,135.18
2023-05-10T00:34:19.146Z,134.61
2023-05-10T00:35:19.140Z,136.71
2023-05-10T00:36:19.135Z,135.13
2023-05-10T00:37:19.171Z,134.90
2023-05-10T00:38:19.179Z,135.44
2023-05-10T00:39:19.216Z,135.75
2023-05-10T00:40:19.390Z,135.74
2023-05-10T00:41:19.245Z,134.40
2023-05-10T00:42:19.263Z,134.64
2023-05-10T00:43:19.308Z,133.08
2023-05-10T00:44:19.319Z,133.48
2023-05-10T00:45:19.342Z,135.82
2023-05-10T00:46:19.408Z,133.82
2023-05-10T00:47:19.367Z,135.23
2023-05-10T00:48:19.396Z,134.65
2023-05-10T00:49:19.418Z,133.93
2023-05-10T00:50:19.447Z,135.66
2023-05-10T00:51:19.456Z,135.59
2023-05-10T00:52:19.491Z,135.73
2023-05-10T00:53:19.504Z,132.71
2023-05-10T00:54:19.531Z,134.78
2023-05-10T00:55:19.541Z,134.77
2023-05-10T00:56:19.568Z,136.12
2023-05-10T00:57:19.589Z,134.69
2023-05-10T00:58:19.622Z,133.82
2023-05-10T00:59:19.626Z,134.60
2023-05-10T01:00:19.653Z,134.66
2023-05-10T01:01:19.680Z,135.63
2023-05-10T01:02:19.697Z,134.14
2023-05-10T01:03:19.894Z,135.90
2023-05-10T01:04:19.730Z,133.51
2023-05-10T01:05:19.812Z,133.83
2023-05-10T01:06:19.769Z,133.30
2023-05-10T01:07:19.794Z,135.77
2023-05-10T01:08:19.845Z,134.12
2023-05-10T01:09:19.842Z,134.14
2023-05-10T01:10:19.881Z,133.39
2023-05-10T01:11:19.894Z,133.73
2023-05-10T01:12:19.994Z,132.72
2023-05-10T01:13:20.022Z,132.03
2023-05-10T01:14:19.976Z,134.74
2023-05-10T01:15:20.007Z,133.85
2023-05-10T01:16:20.046Z,132.47
2023-05-10T01:17:20.127Z,134.96
2023-05-10T01:18:20.104Z,132.25
2023-05-10T01:19:20.117Z,132.62
2023-05-10T01:20:20.260Z,132.90
2023-05-10T01:21:20.160Z,133.33
2023-05-10T01:22:20.209Z,132.42
2023-05-10T01:23:20.218Z,133.00
2023-05-10T01:24:20.254Z,133.41
2023-05-10T01:25:20.260Z,133.73
2023-05-10T01:26:20.287Z,130.94
2023-05-10T01:27:20.319Z,132.61
2023-05-10T01:28:20.359Z,131.79
2023-05-10T01:29:20.391Z,131.99
2023-05-10T01:31:20.592Z,132.24
2023-05-10T01:32:20.476Z,131.51
2023-05-10T01:33:20.489Z,131.35
2023-05-10T01:34:20.512Z,132.81
2023-05-10T01:35:20.566Z,133.62
2023-05-10T01:36:20.573Z,131.94
2023-05-10T01:37:20.613Z,133.33
2023-05-10T01:38:20.634Z,130.71
2023-05-10T01:39:20.680Z,133.00
2023-05-10T01:40:20.724Z,132.69
2023-05-10T01:41:20.746Z,132.68
2023-05-10T01:42:20.769Z,132.49
2023-05-10T01:43:20.824Z,132.34
2023-05-10T01:44:20.838Z,132.80
2023-05-10T01:45:20.869Z,130.35
2023-05-10T01:46:20.905Z,132.29
2023-05-10T01:47:20.930Z,131.69
2023-05-10T01:48:20.994Z,130.88
2023-05-10T01:49:21.009Z,129.38
2023-05-10T01:50:21.036Z,130.36
2023-05-10T01:51:21.060Z,131.99
2023-05-10T01:52:21.073Z,130.30
2023-05-10T01:53:21.118Z,129.65
2023-05-10T01:54:21.151Z,132.80
2023-05-10T01:55:21.186Z,131.83
2023-05-10T01:56:21.214Z,132.28
2023-05-10T01:57:21.255Z,131.00
2023-05-10T01:58:21.283Z,128.69
2023-05-10T01:59:21.318Z,130.79
2023-05-10T02:00:21.350Z,129.77
2023-05-10T02:01:21.458Z,130.30
2023-05-10T02:02:21.397Z,133.11
2023-05-10T02:03:21.450Z,130.76
2023-05-10T02:04:21.466Z,131.18
2023-05-10T02:05:21.493Z,132.89
2023-05-10T02:06:21.581Z,132.07
2023-05-10T02:07:21.548Z,131.30
2023-05-10T02:08:21.578Z,130.44
2023-05-10T02:09:21.612Z,130.84
2023-05-10T02:10:21.653Z,132.25
2023-05-10T02:11:21.702Z,129.54
2023-05-10T02:12:21.802Z,130.47
2023-05-10T02:13:21.808Z,131.63
2023-05-10T02:14:21.789Z,133.24
2023-05-10T02:15:21.797Z,132.70
2023-05-10T02:16:21.857Z,132.88
2023-05-10T02:17:21.866Z,129.45
2023-05-10T02:18:21.904Z,132.27
2023-05-10T02:19:21.931Z,132.47
2023-05-10T02:20:21.958Z,132.66
2023-05-10T02:21:22.020Z,130.83
2023-05-10T02:22:22.010Z,131.16
2023-05-10T02:23:22.054Z,130.06
2023-05-10T02:24:22.093Z,130.25
2023-05-10T02:25:22.118Z,130.22
2023-05-10T02:26:22.133Z,131.59
2023-05-10T02:27:22.160Z,131.62
2023-05-10T02:28:22.229Z,133.12
2023-05-10T02:29:22.246Z,131.05
2023-05-10T02:30:22.394Z,129.68
2023-05-10T02:31:22.344Z,132.06
2023-05-10T02:32:22.348Z,132.35
2023-05-10T02:33:22.371Z,131.33
2023-05-10T02:34:22.406Z,132.20
2023-05-10T02:35:22.447Z,131.48
2023-05-10T02:36:22.506Z,133.95
2023-05-10T02:37:22.498Z,133.60
2023-05-10T02:38:22.546Z,131.67
2023-05-10T02:39:22.588Z,133.82
2023-05-10T02:40:22.679Z,132.33
2023-05-10T02:41:22.658Z,132.09
2023-05-10T02:42:22.689Z,131.68
2023-05-10T02:43:22.725Z,131.46
2023-05-10T02:44:22.764Z,133.02
2023-05-10T02:45:22.779Z,133.17
2023-05-10T02:46:22.859Z,132.34
2023-05-10T02:47:22.838Z,133.07
2023-05-10T02:48:22.879Z,133.77
2023-05-10T02:49:22.926Z,133.81
2023-05-10T02:50:22.947Z,133.13
2023-05-10T02:51:23.003Z,133.82
2023-05-10T02:52:23.024Z,132.86
2023-05-10T02:53:23.075Z,132.71
2023-05-10T02:54:23.108Z,132.67
2023-05-10T02:55:23.148Z,132.16
2023-05-10T02:56:23.186Z,132.08
2023-05-10T02:57:23.244Z,132.39
2023-05-10T02:58:23.261Z,134.55
2023-05-10T02:59:23.309Z,131.98
2023-05-10T03:00:23.329Z,131.83
2023-05-10T03:01:23.395Z,135.88
2023-05-10T03:02:23.416Z,133.10
2023-05-10T03:03:23.457Z,133.33
2023-05-10T03:04:23.529Z,131.85
2023-05-10T03:05:23.513Z,133.72
2023-05-10T03:06:23.533Z,131.90
2023-05-10T03:07:23.587Z,131.89
2023-05-10T03:08:23.599Z,132.06
2023-05-10T03:09:23.658Z,132.72
2023-05-10T03:10:23.733Z,132.73
2023-05-10T03:11:23.694Z,133.72
2023-05-10T03:12:23.719Z,131.79
2023-05-10T03:13:23.877Z,132.46
2023-05-10T03:14:23.814Z,131.68
2023-05-10T03:15:23.845Z,134.42
2023-05-10T03:16:23.940Z,133.63
2023-05-10T03:17:23.952Z,132.72
2023-05-10T03:18:23.983Z,133.23
2023-05-10T03:19:24.011Z,134.74
2023-05-10T03:20:24.043Z,133.06
2023-05-10T03:21:24.084Z,132.58
2023-05-10T03:22:24.183Z,132.09
2023-05-10T03:23:24.161Z,131.51
2023-05-10T03:24:24.227Z,132.03
2023-05-10T03:25:24.282Z,135.14
2023-05-10T03:26:24.299Z,136.56
2023-05-10T03:27:24.335Z,132.89
2023-05-10T03:28:24.380Z,132.06
2023-05-10T03:29:24.434Z,132.39
2023-05-10T03:30:27.402Z,133.75
2023-05-10T03:31:24.527Z,136.20
2023-05-10T03:32:24.508Z,130.82
2023-05-10T03:33:24.513Z,132.85
2023-05-10T03:34:24.531Z,133.90
2023-05-10T03:35:24.538Z,133.98
2023-05-10T03:36:24.551Z,133.14
2023-05-10T03:37:24.560Z,131.99
2023-05-10T03:38:24.578Z,135.69
2023-05-10T03:39:24.594Z,133.86
2023-05-10T03:40:24.602Z,131.06
2023-05-10T03:41:24.643Z,134.79
2023-05-10T03:42:24.638Z,132.09
2023-05-10T03:43:24.644Z,133.45
2023-05-10T03:44:24.638Z,134.36
2023-05-10T03:45:24.643Z,133.46
2023-05-10T03:46:24.821Z,134.54
2023-05-10T03:47:24.676Z,134.65
2023-05-10T03:48:24.681Z,134.24
2023-05-10T03:49:24.677Z,133.49
2023-05-10T03:50:24.679Z,131.24
2023-05-10T03:51:24.690Z,131.73
2023-05-10T03:52:24.751Z,134.81
2023-05-10T03:53:24.718Z,133.37
2023-05-10T03:54:24.723Z,134.25
2023-05-10T03:55:24.726Z,134.19
2023-05-10T03:56:24.729Z,133.37
2023-05-10T03:57:24.740Z,132.10
2023-05-10T03:58:24.744Z,133.62
2023-05-10T03:59:24.782Z,131.24
2023-05-10T04:00:24.767Z,133.88
2023-05-10T04:01:24.800Z,134.88
2023-05-10T04:02:24.922Z,130.85
2023-05-10T04:03:24.849Z,133.65
2023-05-10T04:04:24.808Z,134.52
2023-05-10T04:05:24.822Z,134.21
2023-05-10T04:06:24.867Z,132.64
2023-05-10T04:07:24.844Z,133.18
2023-05-10T04:08:24.848Z,133.25
2023-05-10T04:09:24.892Z,135.56
2023-05-10T04:10:24.873Z,133.80
2023-05-10T04:11:24.885Z,134.47
2023-05-10T04:12:24.890Z,133.70
2023-05-10T04:13:25.052Z,134.19
2023-05-10T04:14:24.914Z,132.94
2023-05-10T04:15:24.922Z,133.19
2023-05-10T04:16:24.974Z,133.85
2023-05-10T04:17:25.003Z,133.83
2023-05-10T04:18:24.975Z,131.58
2023-05-10T04:19:24.990Z,135.22
2023-05-10T04:20:24.999Z,132.88
2023-05-10T04:21:25.015Z,136.28
2023-05-10T04:22:25.029Z,130.38
2023-05-10T04:23:25.045Z,135.29
2023-05-10T04:24:25.079Z,132.81
2023-05-10T04:25:25.073Z,133.38
2023-05-10T04:26:25.096Z,132.87
2023-05-10T04:27:25.081Z,136.08
2023-05-10T04:28:25.107Z,134.34
2023-05-10T04:29:25.160Z,134.46
2023-05-10T04:30:25.116Z,134.81
2023-05-10T04:31:25.252Z,135.09
2023-05-10T04:32:25.153Z,135.36
2023-05-10T04:33:25.146Z,134.53
2023-05-10T04:34:25.159Z,135.28
2023-05-10T04:35:25.174Z,134.43
2023-05-10T04:36:25.269Z,133.29
2023-05-10T04:37:25.182Z,136.72
2023-05-10T04:38:25.193Z,136.64
2023-05-10T04:39:25.199Z,133.77
2023-05-10T04:40:25.217Z,133.20
2023-05-10T04:41:25.233Z,135.02
2023-05-10T04:42:25.238Z,134.28
2023-05-10T04:43:25.243Z,133.50
2023-05-10T04:44:25.278Z,135.48
2023-05-10T04:45:25.316Z,133.79
2023-05-10T04:46:25.483Z,135.13
2023-05-10T04:47:25.378Z,135.23
2023-05-10T04:48:25.388Z,135.28
2023-05-10T04:49:25.396Z,135.17
2023-05-10T04:50:25.418Z,137.71
2023-05-10T04:51:25.419Z,134.75
2023-05-10T04:52:25.446Z,136.79
2023-05-10T04:53:25.433Z,136.92
2023-05-10T04:54:25.444Z,138.17
2023-05-10T04:55:25.454Z,133.25
2023-05-10T04:56:25.472Z,134.24
2023-05-10T04:57:25.474Z,136.61
2023-05-10T04:58:25.510Z,134.52
2023-05-10T04:59:25.499Z,134.66
2023-05-10T05:00:25.503Z,135.12
2023-05-10T05:01:25.565Z,134.55
2023-05-10T05:02:25.595Z,137.32
2023-05-10T05:03:25.558Z,133.55
2023-05-10T05:04:25.540Z,136.33
2023-05-10T05:05:25.550Z,134.80
2023-05-10T05:06:25.555Z,134.45
2023-05-10T05:07:25.563Z,136.20
2023-05-10T05:08:25.591Z,136.01
2023-05-10T05:09:25.590Z,133.12
2023-05-10T05:10:25.594Z,135.98
2023-05-10T05:11:25.609Z,134.41
2023-05-10T05:12:25.694Z,135.81
2023-05-10T05:13:25.804Z,135.23
2023-05-10T05:14:25.780Z,133.85
2023-05-10T05:15:25.827Z,135.04
2023-05-10T05:16:25.977Z,136.69
2023-05-10T05:17:25.951Z,133.63
2023-05-10T05:18:25.981Z,136.45
2023-05-10T05:19:25.997Z,136.57
2023-05-10T05:20:25.988Z,136.65
2023-05-10T05:21:26.008Z,136.83
2023-05-10T05:22:26.007Z,137.30
2023-05-10T05:23:26.007Z,137.15
2023-05-10T05:24:26.035Z,136.62
2023-05-10T05:25:26.039Z,136.54
2023-05-10T05:26:26.115Z,137.17
2023-05-10T05:27:26.047Z,138.10
2023-05-10T05:28:26.197Z,136.81
2023-05-10T05:29:26.087Z,136.44
2023-05-10T05:30:26.092Z,134.58
2023-05-10T05:31:26.169Z,136.82
2023-05-10T05:32:26.278Z,136.31
2023-05-10T05:33:26.112Z,136.86
2023-05-10T05:34:26.129Z,136.71
2023-05-10T05:35:26.117Z,135.92
2023-05-10T05:36:26.197Z,140.65
2023-05-10T05:37:26.147Z,142.73
2023-05-10T05:38:26.199Z,145.35
2023-05-10T05:39:26.273Z,146.46
2023-05-10T05:40:26.320Z,149.62
2023-05-10T05:41:26.348Z,152.26
2023-05-10T05:42:26.396Z,157.13
2023-05-10T05:43:26.447Z,160.25
2023-05-10T05:44:26.512Z,166.88
2023-05-10T05:45:26.536Z,173.84
2023-05-10T05:46:26.648Z,185.42
2023-05-10T05:47:26.840Z,203.43
2023-05-10T05:48:26.725Z,221.31
2023-05-10T05:49:26.768Z,237.14
2023-05-10T05:50:26.736Z,249.61
2023-05-10T05:51:26.831Z,250.00
2023-05-10T05:52:26.866Z,251.57
2023-05-10T05:53:26.997Z,252.08
2023-05-10T05:54:27.050Z,255.15
2023-05-10T05:55:26.884Z,263.49
2023-05-10T05:56:26.926Z,279.40
2023-05-10T05:57:26.913Z,310.91
2023-05-10T05:58:26.971Z,312.38
2023-05-10T05:59:27.049Z,296.84
2023-05-10T06:00:26.925Z,300.00
2023-05-10T06:01:26.853Z,275.80
2023-05-10T06:02:26.948Z,262.69
2023-05-10T06:03:27.017Z,252.30
2023-05-10T06:04:27.025Z,250.00
2023-05-10T06:05:26.901Z,249.69
2023-05-10T06:06:26.904Z,249.87
2023-05-10T06:07:26.900Z,249.99
2023-05-10T06:08:26.909Z,250.48
2023-05-10T06:09:26.896Z,252.47
2023-05-10T06:10:26.936Z,252.18
2023-05-10T06:11:26.906Z,256.17
2023-05-10T06:12:26.932Z,249.81
2023-05-10T06:13:27.083Z,248.26
2023-05-10T06:14:26.974Z,250.00
2023-05-10T06:15:26.982Z,249.10
2023-05-10T06:16:27.087Z,250.00
2023-05-10T06:17:27.142Z,250.00
2023-05-10T06:18:27.231Z,250.23
2023-05-10T06:19:27.160Z,249.62
2023-05-10T06:20:27.495Z,250.56
2023-05-10T06:21:27.185Z,251.18
2023-05-10T06:22:27.228Z,252.76
2023-05-10T06:23:27.190Z,255.49
2023-05-10T06:24:27.211Z,249.53
2023-05-10T06:25:27.228Z,250.00
2023-05-10T06:26:27.239Z,247.19
2023-05-10T06:27:27.316Z,247.10
2023-05-10T06:28:27.505Z,246.00
2023-05-10T06:29:27.553Z,245.66
2023-05-10T06:30:27.644Z,246.71
2023-05-10T06:31:27.677Z,244.51
2023-05-10T06:32:27.669Z,243.10
2023-05-10T06:33:27.732Z,241.40
2023-05-10T06:34:27.801Z,245.30
2023-05-10T06:35:27.922Z,245.52
2023-05-10T06:36:28.128Z,245.88
2023-05-10T06:37:28.540Z,244.92
2023-05-10T06:38:28.215Z,243.30
2023-05-10T06:39:28.161Z,242.37
2023-05-10T06:40:28.309Z,244.93
2023-05-10T06:41:28.333Z,245.60
2023-05-10T06:42:28.459Z,244.36
2023-05-10T06:43:28.326Z,226.51
2023-05-10T06:44:29.019Z,222.00
2023-05-10T06:45:28.466Z,221.51
2023-05-10T06:46:28.531Z,224.13
2023-05-10T06:47:28.778Z,226.93
2023-05-10T06:48:28.638Z,223.85
2023-05-10T06:49:28.693Z,216.49
2023-05-10T06:50:28.749Z,201.95
2023-05-10T06:51:28.783Z,195.88
2023-05-10T06:52:28.841Z,188.93
2023-05-10T06:53:28.924Z,186.71
2023-05-10T06:54:29.026Z,182.66
2023-05-10T06:55:29.040Z,179.53
2023-05-10T06:56:29.106Z,176.15
2023-05-10T06:57:32.043Z,174.42
2023-05-10T06:58:29.170Z,172.10
2023-05-10T06:59:29.172Z,169.02
2023-05-10T07:00:29.157Z,164.15
2023-05-10T07:01:29.274Z,161.05
2023-05-10T07:02:29.411Z,160.69
2023-05-10T07:03:29.136Z,160.44
2023-05-10T07:04:29.227Z,157.44
2023-05-10T07:05:29.315Z,156.14
2023-05-10T07:06:33.338Z,156.99
2023-05-10T07:07:29.256Z,157.02
2023-05-10T07:08:29.155Z,153.26
2023-05-10T07:09:29.174Z,153.17
2023-05-10T07:10:29.223Z,149.67
2023-05-10T07:11:29.155Z,150.18
2023-05-10T07:12:29.398Z,148.73
2023-05-10T07:13:29.200Z,148.14
2023-05-10T07:14:29.143Z,147.97
2023-05-10T07:15:29.159Z,147.26
2023-05-10T07:16:29.194Z,145.44
2023-05-10T07:17:29.308Z,145.60
2023-05-10T07:18:29.224Z,146.47
2023-05-10T07:19:29.279Z,144.70
2023-05-10T07:20:29.297Z,145.12
2023-05-10T07:21:29.387Z,145.18
2023-05-10T07:22:29.379Z,145.28
2023-05-10T07:23:29.422Z,144.70
2023-05-10T07:24:29.478Z,145.33
2023-05-10T07:25:29.547Z,143.95
2023-05-10T07:26:29.642Z,145.19
2023-05-10T07:27:29.685Z,144.25
2023-05-10T07:28:29.775Z,145.48
2023-05-10T07:29:29.830Z,144.28
2023-05-10T07:30:29.932Z,146.86
2023-05-10T07:31:29.973Z,146.64
2023-05-10T07:32:30.026Z,146.70
2023-05-10T07:33:29.928Z,146.86
2023-05-10T07:34:29.929Z,147.91
2023-05-10T07:35:29.927Z,147.51
2023-05-10T07:36:29.958Z,149.54
2023-05-10T07:37:29.936Z,149.43
2023-05-10T07:38:29.940Z,149.38
2023-05-10T07:39:29.940Z,149.67
2023-05-10T07:40:30.017Z,149.08
2023-05-10T07:41:30.058Z,153.35
2023-05-10T07:42:30.021Z,153.57
2023-05-10T07:43:30.021Z,154.38
2023-05-10T07:44:30.058Z,156.23
2023-05-10T07:45:30.107Z,162.19
2023-05-10T07:46:30.063Z,167.02
2023-05-10T07:47:30.099Z,168.65
2023-05-10T07:48:30.018Z,175.04
2023-05-10T07:49:30.033Z,196.92
2023-05-10T07:50:30.030Z,191.92
2023-05-10T07:51:30.028Z,192.88
2023-05-10T07:52:30.047Z,192.78
2023-05-10T07:53:30.117Z,188.52
2023-05-10T07:54:30.031Z,192.48
2023-05-10T07:55:30.051Z,192.88
2023-05-10T07:56:30.035Z,193.34
2023-05-10T07:57:29.998Z,193.50
2023-05-10T07:58:30.036Z,194.68
2023-05-10T07:59:30.010Z,196.37
2023-05-10T08:00:30.058Z,196.73
2023-05-10T08:01:30.004Z,197.42
2023-05-10T08:02:30.106Z,198.80
2023-05-10T08:03:30.138Z,199.74
2023-05-10T08:04:30.204Z,200.42
2023-05-10T08:05:30.018Z,201.18
2023-05-10T08:06:30.060Z,202.89
2023-05-10T08:07:30.047Z,203.02
2023-05-10T08:08:30.019Z,203.27
2023-05-10T08:09:30.004Z,203.64
2023-05-10T08:10:30.010Z,204.63
2023-05-10T08:11:29.976Z,206.20
2023-05-10T08:12:29.963Z,208.67
2023-05-10T08:13:29.974Z,207.97
2023-05-10T08:14:29.956Z,208.53
2023-05-10T08:15:29.963Z,209.96
2023-05-10T08:16:30.118Z,211.60
2023-05-10T08:17:29.963Z,212.82
2023-05-10T08:18:29.962Z,213.06
2023-05-10T08:19:29.938Z,214.01
2023-05-10T08:20:29.945Z,214.14
2023-05-10T08:21:30.048Z,216.04
2023-05-10T08:22:29.908Z,217.61
2023-05-10T08:23:29.922Z,218.61
2023-05-10T08:24:29.920Z,223.18
2023-05-10T08:25:29.919Z,224.47
2023-05-10T08:26:29.915Z,224.09
2023-05-10T08:27:29.917Z,222.88
2023-05-10T08:28:29.885Z,220.70
2023-05-10T08:29:32.875Z,222.18
2023-05-10T08:30:30.928Z,222.20
2023-05-10T08:31:29.982Z,223.01
2023-05-10T08:32:29.898Z,222.79
2023-05-10T08:33:29.858Z,213.76
2023-05-10T08:34:29.862Z,208.73
2023-05-10T08:35:29.878Z,203.58
2023-05-10T08:36:29.897Z,198.77
2023-05-10T08:37:29.810Z,189.38
2023-05-10T08:38:29.824Z,189.43
2023-05-10T08:39:30.909Z,186.22
2023-05-10T08:40:29.803Z,183.35
2023-05-10T08:41:29.945Z,182.72
2023-05-10T08:42:29.768Z,175.76
2023-05-10T08:43:29.836Z,171.82
2023-05-10T08:44:29.809Z,167.16
2023-05-10T08:45:30.122Z,163.57
2023-05-10T08:46:29.828Z,170.23
2023-05-10T08:47:29.773Z,167.59
2023-05-10T08:48:29.752Z,166.12
2023-05-10T08:49:29.786Z,164.64
2023-05-10T08:50:29.790Z,163.83
2023-05-10T08:51:29.758Z,161.78
2023-05-10T08:52:29.750Z,159.05
2023-05-10T08:53:29.804Z,156.69
2023-05-10T08:54:29.738Z,148.23
2023-05-10T08:55:29.731Z,138.46
2023-05-10T08:56:29.741Z,132.83
2023-05-10T08:57:29.732Z,130.15
2023-05-10T08:58:29.738Z,124.65
2023-05-10T08:59:29.785Z,120.54
2023-05-10T09:00:29.839Z,120.39
2023-05-10T09:01:29.839Z,121.63
2023-05-10T09:02:29.791Z,122.33
2023-05-10T09:03:29.788Z,122.37
2023-05-10T09:04:29.869Z,121.05
2023-05-10T09:05:29.754Z,117.10
2023-05-10T09:06:29.705Z,113.96
2023-05-10T09:07:29.743Z,113.50
2023-05-10T09:08:29.681Z,112.66
2023-05-10T09:09:29.705Z,110.59
2023-05-10T09:10:29.730Z,108.35
2023-05-10T09:11:29.722Z,107.06
2023-05-10T09:12:29.792Z,104.82
2023-05-10T09:13:29.805Z,104.84
2023-05-10T09:14:29.813Z,103.38
2023-05-10T09:15:29.795Z,102.28
2023-05-10T09:16:29.846Z,101.13
2023-05-10T09:17:29.796Z,99.34
2023-05-10T09:18:29.784Z,97.11
2023-05-10T09:19:29.791Z,95.87
2023-05-10T09:20:30.493Z,95.58
2023-05-10T09:21:29.904Z,93.96
2023-05-10T09:22:29.880Z,92.49
2023-05-10T09:23:29.935Z,91.60
2023-05-10T09:24:29.981Z,89.90
2023-05-10T09:25:30.049Z,90.68
2023-05-10T09:26:30.121Z,88.99
2023-05-10T09:27:30.216Z,89.25
2023-05-10T09:28:30.262Z,87.71
2023-05-10T09:29:30.346Z,85.81
2023-05-10T09:30:30.389Z,86.24
2023-05-10T09:31:30.632Z,85.47
2023-05-10T09:32:30.616Z,83.93
2023-05-10T09:33:30.652Z,83.32
2023-05-10T09:34:30.646Z,83.21
2023-05-10T09:35:30.723Z,81.91
2023-05-10T09:36:30.787Z,80.80
2023-05-10T09:37:30.862Z,78.22
2023-05-10T09:38:30.961Z,79.17
2023-05-10T09:39:31.090Z,82.19
2023-05-10T09:40:31.129Z,81.84
2023-05-10T09:41:31.135Z,82.76
2023-05-10T09:42:31.292Z,89.01
2023-05-10T09:43:31.253Z,95.25
2023-05-10T09:44:31.311Z,94.60
2023-05-10T09:45:31.466Z,98.23
2023-05-10T09:46:31.692Z,103.97
2023-05-10T09:47:31.511Z,110.20
2023-05-10T09:48:31.559Z,110.93
2023-05-10T09:49:31.643Z,119.55
2023-05-10T09:50:31.674Z,123.98
2023-05-10T09:51:31.714Z,131.49
2023-05-10T09:52:31.752Z,134.90
2023-05-10T09:53:31.753Z,136.02
2023-05-10T09:54:31.820Z,139.62
2023-05-10T09:55:31.876Z,141.85
2023-05-10T09:56:31.884Z,146.09
2023-05-10T09:57:34.544Z,150.05
2023-05-10T09:58:31.917Z,151.81
2023-05-10T09:59:31.922Z,156.78
2023-05-10T10:00:31.922Z,159.64
2023-05-10T10:01:31.974Z,164.49
2023-05-10T10:02:31.957Z,168.83
2023-05-10T10:03:31.923Z,170.68
2023-05-10T10:04:32.013Z,168.27
2023-05-10T10:05:32.039Z,170.76
2023-05-10T10:06:31.895Z,175.01
2023-05-10T10:07:31.940Z,180.08
2023-05-10T10:08:31.905Z,180.61
2023-05-10T10:09:31.928Z,181.81
2023-05-10T10:10:31.910Z,183.12
2023-05-10T10:11:31.911Z,185.76
2023-05-10T10:12:31.963Z,190.40
2023-05-10T10:13:31.936Z,192.12
2023-05-10T10:14:31.918Z,192.92
2023-05-10T10:15:31.915Z,192.24
2023-05-10T10:16:32.114Z,192.34
2023-05-10T10:17:32.055Z,193.26
2023-05-10T10:18:31.939Z,193.16
2023-05-10T10:19:31.920Z,193.57
2023-05-10T10:20:31.928Z,194.75
2023-05-10T10:21:31.899Z,192.14
2023-05-10T10:22:31.892Z,189.68
2023-05-10T10:23:31.901Z,187.63
2023-05-10T10:24:31.908Z,186.59
2023-05-10T10:25:31.893Z,189.02
2023-05-10T10:26:31.912Z,186.42
2023-05-10T10:27:31.904Z,185.69
2023-05-10T10:28:31.910Z,190.17
2023-05-10T10:29:31.899Z,192.01
2023-05-10T10:30:31.910Z,191.11
2023-05-10T10:31:31.944Z,192.40
2023-05-10T10:32:31.920Z,195.41
2023-05-10T10:33:32.031Z,194.06
2023-05-10T10:34:31.861Z,192.64
2023-05-10T10:35:31.878Z,196.69
2023-05-10T10:36:31.894Z,203.49
2023-05-10T10:37:32.032Z,204.35
2023-05-10T10:38:31.891Z,203.58
2023-05-10T10:39:31.896Z,197.21
2023-05-10T10:40:34.395Z,196.71
2023-05-10T10:41:31.891Z,192.79
2023-05-10T10:42:31.856Z,182.66
2023-05-10T10:43:31.858Z,177.08
2023-05-10T10:44:31.888Z,170.07
2023-05-10T10:45:31.854Z,168.31
2023-05-10T10:46:31.915Z,168.58
2023-05-10T10:47:31.884Z,161.52
2023-05-10T10:48:31.866Z,152.03
2023-05-10T10:49:31.871Z,139.91
2023-05-10T10:50:31.844Z,131.70
2023-05-10T10:51:31.858Z,125.38
2023-05-10T10:52:31.891Z,119.10
2023-05-10T10:53:31.975Z,112.12
2023-05-10T10:54:31.898Z,106.77
2023-05-10T10:55:31.843Z,104.14
2023-05-10T10:56:31.848Z,98.11
2023-05-10T10:57:31.853Z,94.34
2023-05-10T10:58:31.839Z,92.69
2023-05-10T10:59:31.875Z,86.75
2023-05-10T11:00:32.273Z,83.99
2023-05-10T11:01:32.086Z,80.40
2023-05-10T11:02:32.037Z,74.49
2023-05-10T11:03:32.106Z,72.27
2023-05-10T11:04:32.165Z,70.59
2023-05-10T11:05:32.196Z,68.02
2023-05-10T11:06:32.280Z,67.35
2023-05-10T11:07:32.321Z,80.55
2023-05-10T11:08:32.423Z,83.38
2023-05-10T11:09:32.458Z,92.86
2023-05-10T11:10:32.499Z,89.02
2023-05-10T11:11:32.559Z,97.19
2023-05-10T11:12:32.637Z,91.77
2023-05-10T11:13:32.660Z,97.63
2023-05-10T11:14:32.732Z,114.13
2023-05-10T11:15:32.821Z,125.94
2023-05-10T11:16:32.867Z,132.26
2023-05-10T11:17:33.058Z,137.26
2023-05-10T11:18:33.023Z,138.83
2023-05-10T11:19:33.022Z,143.14
2023-05-10T11:20:33.077Z,153.20
2023-05-10T11:21:33.146Z,173.17
2023-05-10T11:22:33.192Z,172.69
2023-05-10T11:23:33.254Z,167.79
2023-05-10T11:24:33.297Z,165.14
2023-05-10T11:25:33.352Z,164.25
2023-05-10T11:26:33.501Z,161.93
2023-05-10T11:27:33.425Z,162.00
2023-05-10T11:28:33.404Z,161.12
2023-05-10T11:29:33.401Z,161.97
2023-05-10T11:30:33.497Z,163.11
2023-05-10T11:31:33.399Z,162.04
2023-05-10T11:32:33.399Z,162.37
2023-05-10T11:33:33.410Z,163.24
2023-05-10T11:34:33.394Z,165.05
2023-05-10T11:35:33.420Z,168.23
2023-05-10T11:36:33.464Z,169.78
2023-05-10T11:37:33.605Z,169.89
2023-05-10T11:38:33.419Z,170.00
2023-05-10T11:39:33.423Z,170.11
2023-05-10T11:40:33.454Z,170.59
2023-05-10T11:41:33.512Z,170.73
2023-05-10T11:42:33.444Z,169.90
2023-05-10T11:43:33.458Z,170.24
2023-05-10T11:44:33.489Z,170.53
2023-05-10T11:45:33.486Z,171.02
2023-05-10T11:46:33.551Z,172.61
2023-05-10T11:47:33.552Z,171.23
2023-05-10T11:48:33.504Z,172.17
2023-05-10T11:49:33.508Z,171.72
2023-05-10T11:50:33.523Z,169.66
2023-05-10T11:51:33.545Z,170.47
2023-05-10T11:52:33.587Z,168.78
2023-05-10T11:53:33.790Z,169.35
2023-05-10T11:54:33.726Z,169.83
2023-05-10T11:55:33.797Z,168.82
2023-05-10T11:56:33.863Z,168.72
2023-05-10T11:57:33.926Z,168.14
2023-05-10T11:58:33.964Z,166.81
2023-05-10T11:59:34.000Z,166.92
2023-05-10T12:00:33.996Z,166.93
2023-05-10T12:01:34.012Z,167.17
2023-05-10T12:02:34.037Z,167.25
2023-05-10T12:03:34.121Z,167.51
2023-05-10T12:04:34.020Z,167.85
2023-05-10T12:05:34.004Z,169.86
2023-05-10T12:06:34.035Z,167.08
2023-05-10T12:07:34.024Z,166.91
2023-05-10T12:08:34.089Z,165.88
2023-05-10T12:09:43.388Z,167.27
2023-05-10T12:10:35.163Z,167.35
2023-05-10T12:11:34.159Z,167.29
2023-05-10T12:12:34.117Z,166.89
2023-05-10T12:13:34.118Z,167.32
2023-05-10T12:14:34.100Z,165.27
2023-05-10T12:15:34.125Z,164.66
2023-05-10T12:16:34.200Z,163.85
2023-05-10T12:17:34.232Z,164.37
2023-05-10T12:18:34.152Z,162.01
2023-05-10T12:19:34.132Z,163.39
2023-05-10T12:20:34.132Z,162.24
2023-05-10T12:21:34.239Z,163.43
2023-05-10T12:22:34.289Z,161.76
2023-05-10T12:23:34.338Z,160.46
2023-05-10T12:24:34.411Z,160.69
2023-05-10T12:25:34.523Z,159.63
2023-05-10T12:26:34.568Z,159.48
2023-05-10T12:27:34.567Z,159.54
2023-05-10T12:28:34.628Z,159.74
2023-05-10T12:29:34.576Z,159.71
2023-05-10T12:30:34.587Z,159.25